Map

Track Data

SID SEASON NUMBER BASIN SUBBASIN NAME ISO_TIME NATURE LAT LON WMO_WIND WMO_PRES WMO_AGENCY TRACK_TYPE DIST2LAND LANDFALL IFLAG USA_AGENCY USA_ATCF_ID USA_LAT USA_LON USA_RECORD USA_STATUS USA_WIND USA_PRES USA_SSHS USA_R34_NE USA_R34_SE USA_R34_SW USA_R34_NW USA_R50_NE USA_R50_SE USA_R50_SW USA_R50_NW USA_R64_NE USA_R64_SE USA_R64_SW USA_R64_NW USA_POCI USA_ROCI USA_RMW USA_EYE TOKYO_LAT TOKYO_LON TOKYO_GRADE TOKYO_WIND TOKYO_PRES TOKYO_R50_DIR TOKYO_R50_LONG TOKYO_R50_SHORT TOKYO_R30_DIR TOKYO_R30_LONG TOKYO_R30_SHORT TOKYO_LAND CMA_LAT CMA_LON CMA_CAT CMA_WIND CMA_PRES HKO_LAT HKO_LON HKO_CAT HKO_WIND HKO_PRES NEWDELHI_LAT NEWDELHI_LON NEWDELHI_GRADE NEWDELHI_WIND NEWDELHI_PRES NEWDELHI_CI NEWDELHI_DP NEWDELHI_POCI REUNION_LAT REUNION_LON REUNION_TYPE REUNION_WIND REUNION_PRES REUNION_TNUM REUNION_CI REUNION_RMW REUNION_R34_NE REUNION_R34_SE REUNION_R34_SW REUNION_R34_NW REUNION_R50_NE REUNION_R50_SE REUNION_R50_SW REUNION_R50_NW REUNION_R64_NE REUNION_R64_SE REUNION_R64_SW REUNION_R64_NW BOM_LAT BOM_LON BOM_TYPE BOM_WIND BOM_PRES BOM_TNUM BOM_CI BOM_RMW BOM_R34_NE BOM_R34_SE BOM_R34_SW BOM_R34_NW BOM_R50_NE BOM_R50_SE BOM_R50_SW BOM_R50_NW BOM_R64_NE BOM_R64_SE BOM_R64_SW BOM_R64_NW BOM_ROCI BOM_POCI BOM_EYE BOM_POS_METHOD BOM_PRES_METHOD NADI_LAT NADI_LON NADI_CAT NADI_WIND NADI_PRES WELLINGTON_LAT WELLINGTON_LON WELLINGTON_WIND WELLINGTON_PRES DS824_LAT DS824_LON DS824_STAGE DS824_WIND DS824_PRES TD9636_LAT TD9636_LON TD9636_STAGE TD9636_WIND TD9636_PRES TD9635_LAT TD9635_LON TD9635_WIND TD9635_PRES TD9635_ROCI NEUMANN_LAT NEUMANN_LON NEUMANN_CLASS NEUMANN_WIND NEUMANN_PRES MLC_LAT MLC_LON MLC_CLASS MLC_WIND MLC_PRES USA_GUST BOM_GUST BOM_GUST_PER REUNION_GUST REUNION_GUST_PER USA_SEAHGT USA_SEARAD_NE USA_SEARAD_SE USA_SEARAD_SW USA_SEARAD_NW STORM_SPEED STORM_DIR
1923268N21287 1923 64 NA NA NOT_NAMED 1923-09-24 18:00:00 TS 21.0000 -73.0000 40 hurdat_atl main 10 0 O_____________ hurdat_atl AL051923 21.0000 -73.0000 TS 40 0 6 330
1923268N21287 1923 64 NA NA NOT_NAMED 1923-09-24 21:00:00 TS 21.2500 -73.1524 main 11 11 P_____________ AL051923 21.2500 -73.1524 TS 42 0 6 331
1923268N21287 1923 64 NA NA NOT_NAMED 1923-09-25 00:00:00 TS 21.5000 -73.3000 45 hurdat_atl main 35 35 O_____________ hurdat_atl AL051923 21.5000 -73.3000 TS 45 0 6 331
1923268N21287 1923 64 NA NA NOT_NAMED 1923-09-25 03:00:00 TS 21.7500 -73.4426 main 59 59 P_____________ AL051923 21.7500 -73.4426 TS 47 0 6 331
1923268N21287 1923 64 NA NA NOT_NAMED 1923-09-25 06:00:00 TS 22.0000 -73.6000 50 hurdat_atl main 98 98 O_____________ hurdat_atl AL051923 22.0000 -73.6000 TS 50 0 6 327
1923268N21287 1923 64 NA NA NOT_NAMED 1923-09-25 09:00:00 TS 22.2425 -73.7851 main 123 123 P_____________ AL051923 22.2425 -73.7851 TS 52 0 6 323
1923268N21287 1923 64 NA NA NOT_NAMED 1923-09-25 12:00:00 TS 22.5000 -74.0000 55 hurdat_atl main 159 159 O_____________ hurdat_atl AL051923 22.5000 -74.0000 TS 55 0 7 323
1923268N21287 1923 64 NA NA NOT_NAMED 1923-09-25 15:00:00 TS 22.7925 -74.2351 main 196 196 P_____________ AL051923 22.7925 -74.2351 TS 57 0 8 322
1923268N21287 1923 64 NA NA NOT_NAMED 1923-09-25 18:00:00 TS 23.1000 -74.5000 60 hurdat_atl main 238 238 O_____________ hurdat_atl AL051923 23.1000 -74.5000 TS 60 0 8 320
1923268N21287 1923 64 NA NA NOT_NAMED 1923-09-25 21:00:00 TS 23.4000 -74.7926 main 280 278 P_____________ AL051923 23.4000 -74.7926 TS 62 0 8 317
1923268N21287 1923 64 NA NA NOT_NAMED 1923-09-26 00:00:00 TS 23.7000 -75.1000 65 hurdat_atl main 278 239 O_____________ hurdat_atl AL051923 23.7000 -75.1000 HU 65 1 8 316
1923268N21287 1923 64 NA NA NOT_NAMED 1923-09-26 03:00:00 TS 23.9925 -75.4151 main 239 203 P_____________ AL051923 23.9925 -75.4151 HU 65 1 8 318
1923268N21287 1923 64 NA NA NOT_NAMED 1923-09-26 06:00:00 TS 24.3000 -75.7000 65 hurdat_atl main 203 182 O_____________ hurdat_atl AL051923 24.3000 -75.7000 HU 65 1 8 324
1923268N21287 1923 64 NA NA NOT_NAMED 1923-09-26 09:00:00 TS 24.6349 -75.9301 main 182 167 P_____________ AL051923 24.6349 -75.9301 HU 65 1 8 333
1923268N21287 1923 64 NA NA NOT_NAMED 1923-09-26 12:00:00 TS 25.0000 -76.1000 65 hurdat_atl main 170 165 O_____________ hurdat_atl AL051923 25.0000 -76.1000 HU 65 1 8 341
1923268N21287 1923 64 NA NA NOT_NAMED 1923-09-26 15:00:00 TS 25.3850 -76.2226 main 179 174 P_____________ AL051923 25.3850 -76.2226 HU 65 1 8 347
1923268N21287 1923 64 NA NA NOT_NAMED 1923-09-26 18:00:00 TS 25.8000 -76.3000 65 hurdat_atl main 187 187 O_____________ hurdat_atl AL051923 25.8000 -76.3000 HU 65 1 9 351
1923268N21287 1923 64 NA NA NOT_NAMED 1923-09-26 21:00:00 TS 26.2500 -76.3650 main 201 201 P_____________ AL051923 26.2500 -76.3650 HU 65 1 9 355
1923268N21287 1923 64 NA NA NOT_NAMED 1923-09-27 00:00:00 TS 26.7000 -76.4000 65 hurdat_atl main 239 239 O_____________ hurdat_atl AL051923 26.7000 -76.4000 HU 65 1 9 357
1923268N21287 1923 64 NA NA NOT_NAMED 1923-09-27 03:00:00 TS 27.1075 -76.4150 main 274 274 P_____________ AL051923 27.1075 -76.4150 HU 65 1 8 1
1923268N21287 1923 64 NA NA NOT_NAMED 1923-09-27 06:00:00 TS 27.5000 -76.4000 65 hurdat_atl main 311 311 O_____________ hurdat_atl AL051923 27.5000 -76.4000 HU 65 1 8 3
1923268N21287 1923 64 NA NA NOT_NAMED 1923-09-27 09:00:00 TS 27.9150 -76.3650 main 350 350 P_____________ AL051923 27.9150 -76.3650 HU 67 1 8 6
1923268N21287 1923 64 NA NA NOT_NAMED 1923-09-27 12:00:00 TS 28.3000 -76.3000 70 hurdat_atl main 395 395 O_____________ hurdat_atl AL051923 28.3000 -76.3000 HU 70 1 7 11
1923268N21287 1923 64 NA NA NOT_NAMED 1923-09-27 15:00:00 TS 28.6225 -76.2150 main 419 419 P_____________ AL051923 28.6225 -76.2150 HU 72 1 6 16
1923268N21287 1923 64 NA NA NOT_NAMED 1923-09-27 18:00:00 TS 28.9000 -76.1000 75 hurdat_atl main 430 430 O_____________ hurdat_atl AL051923 28.9000 -76.1000 HU 75 1 6 21
1923268N21287 1923 64 NA NA NOT_NAMED 1923-09-27 21:00:00 TS 29.1649 -75.9724 main 444 444 P_____________ AL051923 29.1649 -75.9724 HU 77 1 6 28
1923268N21287 1923 64 NA NA NOT_NAMED 1923-09-28 00:00:00 TS 29.4000 -75.8000 80 hurdat_atl main 467 467 O_____________ hurdat_atl AL051923 29.4000 -75.8000 HU 80 1 6 39
1923268N21287 1923 64 NA NA NOT_NAMED 1923-09-28 03:00:00 TS 29.6075 -75.5649 main 491 491 P_____________ AL051923 29.6075 -75.5649 HU 82 1 6 47
1923268N21287 1923 64 NA NA NOT_NAMED 1923-09-28 06:00:00 TS 29.8000 -75.3000 85 hurdat_atl main 523 513 O_____________ hurdat_atl AL051923 29.8000 -75.3000 HU 85 2 6 49
1923268N21287 1923 64 NA NA NOT_NAMED 1923-09-28 09:00:00 TS 30.0000 -75.0499 main 518 505 P_____________ AL051923 30.0000 -75.0499 HU 87 2 6 47
1923268N21287 1923 64 NA NA NOT_NAMED 1923-09-28 12:00:00 TS 30.2000 -74.8000 90 hurdat_atl main 510 504 O_____________ hurdat_atl AL051923 30.2000 -74.8000 HU 90 2 6 47
1923268N21287 1923 64 NA NA NOT_NAMED 1923-09-28 15:00:00 TS 30.4075 -74.5500 main 510 497 P_____________ AL051923 30.4075 -74.5500 HU 92 2 6 47
1923268N21287 1923 64 NA NA NOT_NAMED 1923-09-28 18:00:00 TS 30.6000 -74.3000 95 hurdat_atl main 501 495 O_____________ hurdat_atl AL051923 30.6000 -74.3000 HU 95 2 6 51
1923268N21287 1923 64 NA NA NOT_NAMED 1923-09-28 21:00:00 TS 30.7575 -74.0499 main 493 488 P_____________ AL051923 30.7575 -74.0499 HU 97 3 5 55
1923268N21287 1923 64 NA NA NOT_NAMED 1923-09-29 00:00:00 TS 30.9000 -73.8000 100 hurdat_atl main 492 488 O_____________ hurdat_atl AL051923 30.9000 -73.8000 HU 100 3 5 55
1923268N21287 1923 64 NA NA NOT_NAMED 1923-09-29 03:00:00 TS 31.0499 -73.5574 main 493 485 P_____________ AL051923 31.0499 -73.5574 HU 102 3 5 55
1923268N21287 1923 64 NA NA NOT_NAMED 1923-09-29 06:00:00 TS 31.2000 -73.3000 105 hurdat_atl main 490 487 O_____________ hurdat_atl AL051923 31.2000 -73.3000 HU 105 3 6 57
1923268N21287 1923 64 NA NA NOT_NAMED 1923-09-29 09:00:00 TS 31.3499 -73.0149 main 499 491 P_____________ AL051923 31.3499 -73.0149 HU 105 3 6 60
1923268N21287 1923 64 NA NA NOT_NAMED 1923-09-29 12:00:00 TS 31.5000 -72.7000 105 hurdat_atl main 502 500 O_____________ hurdat_atl AL051923 31.5000 -72.7000 HU 105 3 6 61
1923268N21287 1923 64 NA NA NOT_NAMED 1923-09-29 15:00:00 TS 31.6498 -72.3723 main 514 506 P_____________ AL051923 31.6498 -72.3723 HU 105 3 7 63
1923268N21287 1923 64 NA NA NOT_NAMED 1923-09-29 18:00:00 TS 31.8000 -72.0000 105 hurdat_atl main 527 527 O_____________ hurdat_atl AL051923 31.8000 -72.0000 HU 105 3 7 66
1923268N21287 1923 64 NA NA NOT_NAMED 1923-09-29 21:00:00 TS 31.9498 -71.5798 main 548 542 P_____________ AL051923 31.9498 -71.5798 HU 105 3 8 69
1923268N21287 1923 64 NA NA NOT_NAMED 1923-09-30 00:00:00 TS 32.1000 -71.1000 105 hurdat_atl main 573 573 O_____________ hurdat_atl AL051923 32.1000 -71.1000 HU 105 3 9 72
1923268N21287 1923 64 NA NA NOT_NAMED 1923-09-30 03:00:00 TS 32.2272 -70.5793 main 603 602 P_____________ AL051923 32.2272 -70.5793 HU 102 3 10 72
1923268N21287 1923 64 NA NA NOT_NAMED 1923-09-30 06:00:00 TS 32.4000 -70.0000 100 hurdat_atl main 631 631 O_____________ hurdat_atl AL051923 32.4000 -70.0000 HU 100 3 11 68
1923268N21287 1923 64 NA NA NOT_NAMED 1923-09-30 09:00:00 TS 32.6319 -69.3936 main 663 663 P_____________ AL051923 32.6319 -69.3936 HU 97 3 12 61
1923268N21287 1923 64 NA NA NOT_NAMED 1923-09-30 12:00:00 TS 33.0000 -68.7000 95 hurdat_atl main 696 696 O_____________ hurdat_atl AL051923 33.0000 -68.7000 HU 95 2 15 54
1923268N21287 1923 64 NA NA NOT_NAMED 1923-09-30 15:00:00 TS 33.5087 -67.9372 main 739 739 P_____________ AL051923 33.5087 -67.9372 HU 95 2 19 50
1923268N21287 1923 64 NA NA NOT_NAMED 1923-09-30 18:00:00 TS 34.2000 -67.0000 95 hurdat_atl main 792 792 O_____________ hurdat_atl AL051923 34.2000 -67.0000 HU 95 2 23 49
1923268N21287 1923 64 NA NA NOT_NAMED 1923-09-30 21:00:00 TS 35.0019 -65.8437 main 830 791 P_____________ AL051923 35.0019 -65.8437 HU 92 2 27 49
1923268N21287 1923 64 NA NA NOT_NAMED 1923-10-01 00:00:00 TS 36.0000 -64.5000 90 hurdat_atl main 792 736 O_____________ hurdat_atl AL051923 36.0000 -64.5000 HU 90 2 31 47
1923268N21287 1923 64 NA NA NOT_NAMED 1923-10-01 03:00:00 TS 37.1461 -62.9983 main 738 646 P_____________ AL051923 37.1461 -62.9983 HU 87 2 35 44
1923268N21287 1923 64 NA NA NOT_NAMED 1923-10-01 06:00:00 TS 38.5000 -61.5000 85 hurdat_atl main 640 563 O_____________ hurdat_atl AL051923 38.5000 -61.5000 HU 85 2 37 37
1923268N21287 1923 64 NA NA NOT_NAMED 1923-10-01 09:00:00 TS 40.1000 -60.1051 main 557 434 P_____________ AL051923 40.1000 -60.1051 HU 82 1 37 31
1923268N21287 1923 64 NA NA NOT_NAMED 1923-10-01 12:00:00 ET 41.7000 -59.0000 80 hurdat_atl main 424 325 O_____________ hurdat_atl AL051923 41.7000 -59.0000 EX 80 -4 33 24
1923268N21287 1923 64 NA NA NOT_NAMED 1923-10-01 15:00:00 ET 43.0750 -58.3353 main 322 250 P_____________ AL051923 43.0750 -58.3353 EX 77 -4 26 16
1923268N21287 1923 64 NA NA NOT_NAMED 1923-10-01 18:00:00 ET 44.2000 -58.0000 75 hurdat_atl main 242 199 O_____________ hurdat_atl AL051923 44.2000 -58.0000 EX 75 -4 21 12
1923268N21287 1923 64 NA NA NOT_NAMED 1923-10-01 21:00:00 ET 45.0845 -57.7298 main 202 178 P_____________ AL051923 45.0845 -57.7298 EX 72 -4 15 11
1923268N21287 1923 64 NA NA NOT_NAMED 1923-10-02 00:00:00 ET 45.7000 -57.6000 70 hurdat_atl main 178 151 O_____________ hurdat_atl AL051923 45.7000 -57.6000 EX 70 -4 10 8
1923268N21287 1923 64 NA NA NOT_NAMED 1923-10-02 03:00:00 ET 46.1174 -57.5191 main 151 130 P_____________ AL051923 46.1174 -57.5191 EX 67 -4 7 6
1923268N21287 1923 64 NA NA NOT_NAMED 1923-10-02 06:00:00 ET 46.4000 -57.5000 65 hurdat_atl main 130 99 O_____________ hurdat_atl AL051923 46.4000 -57.5000 EX 65 -4 6 0
1923268N21287 1923 64 NA NA NOT_NAMED 1923-10-02 09:00:00 ET 46.6774 -57.5289 main 99 66 P_____________ AL051923 46.6774 -57.5289 EX 62 -4 6 1
1923268N21287 1923 64 NA NA NOT_NAMED 1923-10-02 12:00:00 ET 47.0000 -57.5000 60 hurdat_atl main 66 22 O_____________ hurdat_atl AL051923 47.0000 -57.5000 EX 60 -4 7 8
1923268N21287 1923 64 NA NA NOT_NAMED 1923-10-02 15:00:00 ET 47.3941 -57.3725 main 22 0 P_____________ AL051923 47.3941 -57.3725 EX 57 -4 11 19
1923268N21287 1923 64 NA NA NOT_NAMED 1923-10-02 18:00:00 ET 48.0000 -57.0000 55 hurdat_atl main 0 0 O_____________ hurdat_atl AL051923 48.0000 -57.0000 EX 55 -4 16 25
1923268N21287 1923 64 NA NA NOT_NAMED 1923-10-02 21:00:00 ET 48.8860 -56.3317 main 0 0 P_____________ AL051923 48.8860 -56.3317 EX 52 -4 23 29
1923268N21287 1923 64 NA NA NOT_NAMED 1923-10-03 00:00:00 ET 50.0000 -55.3000 50 hurdat_atl main 30 30 O_____________ hurdat_atl AL051923 50.0000 -55.3000 EX 50 -4 28 34
1923268N21287 1923 64 NA NA NOT_NAMED 1923-10-03 03:00:00 ET 51.2133 -53.9199 main 112 112 P_____________ AL051923 51.2133 -53.9199 EX 50 -4 31 37
1923268N21287 1923 64 NA NA NOT_NAMED 1923-10-03 06:00:00 ET 52.5000 -52.3000 50 hurdat_atl main 222 222 O_____________ hurdat_atl AL051923 52.5000 -52.3000 EX 50 -4 32 38
1923268N21287 1923 64 NA NA NOT_NAMED 1923-10-03 09:00:00 ET 53.7869 -50.6486 main 346 346 P_____________ AL051923 53.7869 -50.6486 EX 47 -4 32 38
1923268N21287 1923 64 NA NA NOT_NAMED 1923-10-03 12:00:00 ET 55.0000 -49.0000 45 hurdat_atl main 477 472 O_____________ hurdat_atl AL051923 55.0000 -49.0000 EX 45 -4 29 39
1923268N21287 1923 64 NA NA NOT_NAMED 1923-10-03 15:00:00 ET 56.0720 -47.4682 main 459 340 P_____________ AL051923 56.0720 -47.4682 EX 45 -4 26 40
1923268N21287 1923 64 NA NA NOT_NAMED 1923-10-03 18:00:00 ET 57.0000 -46.0000 45 hurdat_atl main 339 243 O_____________ hurdat_atl AL051923 57.0000 -46.0000 EX 45 -4 24 43
1923268N21287 1923 64 NA NA NOT_NAMED 1923-10-03 21:00:00 ET 57.8230 -44.4941 main 243 177 P_____________ AL051923 57.8230 -44.4941 EX 45 -4 22 47
1923268N21287 1923 64 NA NA NOT_NAMED 1923-10-04 00:00:00 ET 58.5000 -43.0000 45 hurdat_atl main 177 141 O_____________ hurdat_atl AL051923 58.5000 -43.0000 EX 45 -4 20 51
1923268N21287 1923 64 NA NA NOT_NAMED 1923-10-04 03:00:00 ET 59.0731 -41.4958 main 142 142 P_____________ AL051923 59.0731 -41.4958 EX 45 -4 18 57
1923268N21287 1923 64 NA NA NOT_NAMED 1923-10-04 06:00:00 ET 59.5000 -40.0000 45 hurdat_atl main 184 184 O_____________ hurdat_atl AL051923 59.5000 -40.0000 EX 45 -4 17 64
1923268N21287 1923 64 NA NA NOT_NAMED 1923-10-04 09:00:00 ET 59.8007 -38.4948 main 253 253 P_____________ AL051923 59.8007 -38.4948 EX 45 -4 16 72
1923268N21287 1923 64 NA NA NOT_NAMED 1923-10-04 12:00:00 ET 60.0000 -37.0000 45 hurdat_atl main 326 326 O_____________ hurdat_atl AL051923 60.0000 -37.0000 EX 45 -4 15 76
1923268N21287 1923 64 NA NA NOT_NAMED 1923-10-04 15:00:00 ET 60.1609 -35.5038 main 394 394 P_____________ AL051923 60.1609 -35.5038 EX 45 -4 15 79
1923268N21287 1923 64 NA NA NOT_NAMED 1923-10-04 18:00:00 ET 60.3000 -34.0000 45 hurdat_atl main 465 O_____________ hurdat_atl AL051923 60.3000 -34.0000 EX 45 -4 15 79

About IBTrACS Database

This database is a web-friendly format of International Best Track Archive for Climate Stewardship (IBTrACS), a global best track data archive curated by NOAA dating back to 1842.

Updated: 2021-10-08